Airfield :
LOGIN :

Register | Disclaimer

   EN    FR    IT 

 










Legend :    VFR   Marginal VFR   IFR   Intensive IFR   Very Intensive IFR
Visi :
Ceiling :
>= 8 km
>= 3000ft
5 to 8 km
1000 to 3000 ft
1500m to 5 km
500 to 1000 ft
800 to 1500m
200 to 500 ft
< 800m
< 200 ft
Symbols :   Thunderstorms  Fog  Heavy snow  Heavy precipitations  Wind > 20 kt
SIGMETs :     Misc.  Thunderstorms  Icing  Turbulence  Mountain Waves  Volcanic Ashes







- Airport Elevation : 650 ft
- IATA code : ZJI


LSZL - Locarno

CURRENT METAR :
  • 172020Z AUTO 05002KT 9999NDV FEW026 SCT030 BKN110 05/04 Q1011 RMK

EXPIRED METARs :
  • 171950Z AUTO 11003KT 9999NDV BKN027 BKN054 BKN110 05/04 Q1011 RMK
  • 171920Z AUTO 07002KT 9999NDV -SHRA FEW025 BKN054 05/04 Q1011 RMK
  • 171850Z AUTO VRB02KT 9999NDV -SHRA SCT047 OVC053 05/04 Q1011 RMK
  • 171750Z AUTO 23004KT 9999NDV SCT035 BKN041 BKN052 06/04 Q1011 RMK

TAF TAF LSZL
Valid from the 17 at 18:00 until the 18 at 03:00 UTC


171725Z 1718/1803 VRB03KT 9999 SCT030 BKN050
TEMPO 1721/1803 4000 BR
No reported NOTAMs for that airfield.



MET'MAP, your aeronautical weather chart ! - Copyright ORBIFLY December 2007 - Disclaimer

ORBIFLY MET'MAP TEAM :

Programming & Development : Alexandra Zaïnal
Concept & Development : Baudouin d'Aumeries
Co-Development & Prog : Marc-Olivier Méhu
Technical & hardware support : Manuel Goepfert

Contact : metmap@orbifly.com




SOURCES & CREDITS :

   NOAA